sensor_id;sensor_type;location;lat;lon;timestamp;temperature;humidity
18906;DHT22;9585;51.018;4.282;2024-03-02T00:01:15;6.60;99.90
18906;DHT22;9585;51.018;4.282;2024-03-02T00:03:49;6.60;99.90
18906;DHT22;9585;51.018;4.282;2024-03-02T00:06:20;6.60;99.90
18906;DHT22;9585;51.018;4.282;2024-03-02T00:08:51;6.60;99.90
18906;DHT22;9585;51.018;4.282;2024-03-02T00:11:29;6.60;99.90
18906;DHT22;9585;51.018;4.282;2024-03-02T00:13:57;6.60;99.90
18906;DHT22;9585;51.018;4.282;2024-03-02T00:16:31;6.60;99.90
18906;DHT22;9585;51.018;4.282;2024-03-02T00:19:02;6.70;99.90
18906;DHT22;9585;51.018;4.282;2024-03-02T00:21:34;6.60;99.90
18906;DHT22;9585;51.018;4.282;2024-03-02T00:24:09;6.60;99.90
18906;DHT22;9585;51.018;4.282;2024-03-02T00:26:45;6.50;99.90
18906;DHT22;9585;51.018;4.282;2024-03-02T00:29:16;6.50;99.90
18906;DHT22;9585;51.018;4.282;2024-03-02T00:31:51;6.50;99.90
18906;DHT22;9585;51.018;4.282;2024-03-02T00:34:19;6.60;99.90
18906;DHT22;9585;51.018;4.282;2024-03-02T00:36:49;6.50;99.90
18906;DHT22;9585;51.018;4.282;2024-03-02T00:39:45;6.60;99.90
18906;DHT22;9585;51.018;4.282;2024-03-02T00:42:29;6.50;99.90
18906;DHT22;9585;51.018;4.282;2024-03-02T00:45:08;6.50;99.90
18906;DHT22;9585;51.018;4.282;2024-03-02T00:47:38;6.60;99.90
18906;DHT22;9585;51.018;4.282;2024-03-02T00:50:07;6.60;99.90
18906;DHT22;9585;51.018;4.282;2024-03-02T00:52:36;6.50;99.90
18906;DHT22;9585;51.018;4.282;2024-03-02T00:55:06;6.60;99.90
18906;DHT22;9585;51.018;4.282;2024-03-02T00:57:38;6.60;99.90
18906;DHT22;9585;51.018;4.282;2024-03-02T01:00:08;6.60;99.90
18906;DHT22;9585;51.018;4.282;2024-03-02T01:02:47;6.70;99.90
18906;DHT22;9585;51.018;4.282;2024-03-02T01:05:18;6.60;99.90
18906;DHT22;9585;51.018;4.282;2024-03-02T01:07:48;6.70;99.90
18906;DHT22;9585;51.018;4.282;2024-03-02T01:10:21;6.70;99.90
18906;DHT22;9585;51.018;4.282;2024-03-02T01:12:52;6.60;99.90
18906;DHT22;9585;51.018;4.282;2024-03-02T01:15:24;6.70;99.90
18906;DHT22;9585;51.018;4.282;2024-03-02T01:17:57;6.60;99.90
18906;DHT22;9585;51.018;4.282;2024-03-02T01:20:25;6.70;99.90
18906;DHT22;9585;51.018;4.282;2024-03-02T01:22:53;6.70;99.90
18906;DHT22;9585;51.018;4.282;2024-03-02T01:25:40;6.70;99.90
18906;DHT22;9585;51.018;4.282;2024-03-02T01:28:25;6.70;99.90
18906;DHT22;9585;51.018;4.282;2024-03-02T01:30:56;6.70;99.90
18906;DHT22;9585;51.018;4.282;2024-03-02T01:33:33;6.70;99.90
18906;DHT22;9585;51.018;4.282;2024-03-02T01:36:10;6.80;99.90
18906;DHT22;9585;51.018;4.282;2024-03-02T01:38:37;6.80;99.90
18906;DHT22;9585;51.018;4.282;2024-03-02T01:41:07;6.80;99.90
18906;DHT22;9585;51.018;4.282;2024-03-02T01:43:36;6.80;99.90
18906;DHT22;9585;51.018;4.282;2024-03-02T01:46:04;6.80;99.90
18906;DHT22;9585;51.018;4.282;2024-03-02T01:48:34;6.80;99.90
18906;DHT22;9585;51.018;4.282;2024-03-02T01:51:06;6.70;99.90
18906;DHT22;9585;51.018;4.282;2024-03-02T01:53:51;6.60;99.90
18906;DHT22;9585;51.018;4.282;2024-03-02T01:56:20;6.50;99.90
18906;DHT22;9585;51.018;4.282;2024-03-02T01:58:49;6.50;99.90
18906;DHT22;9585;51.018;4.282;2024-03-02T02:01:53;6.60;99.90
18906;DHT22;9585;51.018;4.282;2024-03-02T02:04:34;6.70;99.90
18906;DHT22;9585;51.018;4.282;2024-03-02T02:07:02;6.60;99.90
18906;DHT22;9585;51.018;4.282;2024-03-02T02:09:33;6.70;99.90
18906;DHT22;9585;51.018;4.282;2024-03-02T02:12:05;6.80;99.90
18906;DHT22;9585;51.018;4.282;2024-03-02T02:14:39;6.70;99.90
18906;DHT22;9585;51.018;4.282;2024-03-02T02:17:15;6.60;99.90
18906;DHT22;9585;51.018;4.282;2024-03-02T02:19:44;6.50;99.90
18906;DHT22;9585;51.018;4.282;2024-03-02T02:22:13;6.50;99.90
18906;DHT22;9585;51.018;4.282;2024-03-02T02:24:42;6.40;99.90
18906;DHT22;9585;51.018;4.282;2024-03-02T02:27:10;6.40;99.90
18906;DHT22;9585;51.018;4.282;2024-03-02T02:29:41;6.40;99.90
18906;DHT22;9585;51.018;4.282;2024-03-02T02:32:14;6.50;99.90
18906;DHT22;9585;51.018;4.282;2024-03-02T02:34:43;6.60;99.90
18906;DHT22;9585;51.018;4.282;2024-03-02T02:37:11;6.60;99.90
18906;DHT22;9585;51.018;4.282;2024-03-02T02:39:47;6.60;99.90
18906;DHT22;9585;51.018;4.282;2024-03-02T02:42:16;6.60;99.90
18906;DHT22;9585;51.018;4.282;2024-03-02T02:44:46;6.60;99.90
18906;DHT22;9585;51.018;4.282;2024-03-02T02:47:16;6.60;99.90
18906;DHT22;9585;51.018;4.282;2024-03-02T02:49:44;6.60;99.90
18906;DHT22;9585;51.018;4.282;2024-03-02T02:52:15;6.70;99.90
18906;DHT22;9585;51.018;4.282;2024-03-02T02:54:48;6.70;99.90
18906;DHT22;9585;51.018;4.282;2024-03-02T02:57:18;6.60;99.90
18906;DHT22;9585;51.018;4.282;2024-03-02T02:59:46;6.60;99.90
18906;DHT22;9585;51.018;4.282;2024-03-02T03:02:14;6.60;99.90
18906;DHT22;9585;51.018;4.282;2024-03-02T03:04:42;6.60;99.90
18906;DHT22;9585;51.018;4.282;2024-03-02T03:07:10;6.60;99.90
18906;DHT22;9585;51.018;4.282;2024-03-02T03:09:42;6.60;99.90
18906;DHT22;9585;51.018;4.282;2024-03-02T03:12:12;6.70;99.90
18906;DHT22;9585;51.018;4.282;2024-03-02T03:14:41;6.70;99.90
18906;DHT22;9585;51.018;4.282;2024-03-02T03:17:11;6.60;99.90
18906;DHT22;9585;51.018;4.282;2024-03-02T03:19:39;6.60;99.90
18906;DHT22;9585;51.018;4.282;2024-03-02T03:22:07;6.60;99.90
18906;DHT22;9585;51.018;4.282;2024-03-02T03:24:35;6.60;99.90
18906;DHT22;9585;51.018;4.282;2024-03-02T03:27:03;6.70;99.90
18906;DHT22;9585;51.018;4.282;2024-03-02T03:29:33;6.70;99.90
18906;DHT22;9585;51.018;4.282;2024-03-02T03:32:01;6.70;99.90
18906;DHT22;9585;51.018;4.282;2024-03-02T03:34:32;6.70;99.90
18906;DHT22;9585;51.018;4.282;2024-03-02T03:37:17;6.70;99.90
18906;DHT22;9585;51.018;4.282;2024-03-02T03:39:45;6.60;99.90
18906;DHT22;9585;51.018;4.282;2024-03-02T03:42:12;6.50;99.90
18906;DHT22;9585;51.018;4.282;2024-03-02T03:44:42;6.50;99.90
18906;DHT22;9585;51.018;4.282;2024-03-02T03:47:10;6.50;99.90
18906;DHT22;9585;51.018;4.282;2024-03-02T03:49:43;6.50;99.90
18906;DHT22;9585;51.018;4.282;2024-03-02T03:52:13;6.50;99.90
18906;DHT22;9585;51.018;4.282;2024-03-02T03:54:41;6.50;99.90
18906;DHT22;9585;51.018;4.282;2024-03-02T03:57:10;6.40;99.90
18906;DHT22;9585;51.018;4.282;2024-03-02T03:59:38;6.40;99.90
18906;DHT22;9585;51.018;4.282;2024-03-02T04:02:08;6.30;99.90
18906;DHT22;9585;51.018;4.282;2024-03-02T04:04:39;6.30;99.90
18906;DHT22;9585;51.018;4.282;2024-03-02T04:07:07;6.30;99.90
18906;DHT22;9585;51.018;4.282;2024-03-02T04:09:34;6.40;99.90
18906;DHT22;9585;51.018;4.282;2024-03-02T04:12:03;6.30;99.90
18906;DHT22;9585;51.018;4.282;2024-03-02T04:14:31;6.30;99.90
18906;DHT22;9585;51.018;4.282;2024-03-02T04:16:59;6.30;99.90
18906;DHT22;9585;51.018;4.282;2024-03-02T04:19:33;6.30;99.90
18906;DHT22;9585;51.018;4.282;2024-03-02T04:22:01;6.30;99.90
18906;DHT22;9585;51.018;4.282;2024-03-02T04:24:29;6.20;99.90
18906;DHT22;9585;51.018;4.282;2024-03-02T04:26:57;6.20;99.90
18906;DHT22;9585;51.018;4.282;2024-03-02T04:29:25;6.10;99.90
18906;DHT22;9585;51.018;4.282;2024-03-02T04:31:53;6.00;99.90
18906;DHT22;9585;51.018;4.282;2024-03-02T04:34:21;6.00;99.90
18906;DHT22;9585;51.018;4.282;2024-03-02T04:36:50;6.00;99.90
18906;DHT22;9585;51.018;4.282;2024-03-02T04:39:18;6.00;99.90
18906;DHT22;9585;51.018;4.282;2024-03-02T04:41:46;6.10;99.90
18906;DHT22;9585;51.018;4.282;2024-03-02T04:44:14;6.10;99.90
18906;DHT22;9585;51.018;4.282;2024-03-02T04:46:42;6.10;99.90
18906;DHT22;9585;51.018;4.282;2024-03-02T04:49:10;6.10;99.90
18906;DHT22;9585;51.018;4.282;2024-03-02T04:51:37;6.10;99.90
18906;DHT22;9585;51.018;4.282;2024-03-02T04:54:09;6.10;99.90
18906;DHT22;9585;51.018;4.282;2024-03-02T04:56:40;6.00;99.90
18906;DHT22;9585;51.018;4.282;2024-03-02T04:59:10;5.90;99.90
18906;DHT22;9585;51.018;4.282;2024-03-02T05:01:39;5.90;99.90
18906;DHT22;9585;51.018;4.282;2024-03-02T05:04:06;5.80;99.90
18906;DHT22;9585;51.018;4.282;2024-03-02T05:06:34;5.80;99.90
18906;DHT22;9585;51.018;4.282;2024-03-02T05:09:02;5.80;99.90
18906;DHT22;9585;51.018;4.282;2024-03-02T05:11:31;5.80;99.90
18906;DHT22;9585;51.018;4.282;2024-03-02T05:14:22;5.80;99.90
18906;DHT22;9585;51.018;4.282;2024-03-02T05:16:50;5.70;99.90
18906;DHT22;9585;51.018;4.282;2024-03-02T05:19:18;5.70;99.90
18906;DHT22;9585;51.018;4.282;2024-03-02T05:21:46;5.70;99.90
18906;DHT22;9585;51.018;4.282;2024-03-02T05:24:14;5.60;99.90
18906;DHT22;9585;51.018;4.282;2024-03-02T05:26:44;5.50;99.90
18906;DHT22;9585;51.018;4.282;2024-03-02T05:29:12;5.50;99.90
18906;DHT22;9585;51.018;4.282;2024-03-02T05:31:40;5.50;99.90
18906;DHT22;9585;51.018;4.282;2024-03-02T05:34:08;5.50;99.90
18906;DHT22;9585;51.018;4.282;2024-03-02T05:36:36;5.40;99.90
18906;DHT22;9585;51.018;4.282;2024-03-02T05:39:05;5.40;99.90
18906;DHT22;9585;51.018;4.282;2024-03-02T05:41:35;5.40;99.90
18906;DHT22;9585;51.018;4.282;2024-03-02T05:44:06;5.30;99.90
18906;DHT22;9585;51.018;4.282;2024-03-02T05:46:34;5.40;99.90
18906;DHT22;9585;51.018;4.282;2024-03-02T05:49:01;5.40;99.90
18906;DHT22;9585;51.018;4.282;2024-03-02T05:51:29;5.30;99.90
18906;DHT22;9585;51.018;4.282;2024-03-02T05:53:57;5.30;99.90
18906;DHT22;9585;51.018;4.282;2024-03-02T05:56:30;5.20;99.90
18906;DHT22;9585;51.018;4.282;2024-03-02T05:58:58;5.20;99.90
18906;DHT22;9585;51.018;4.282;2024-03-02T06:01:40;5.30;99.90
18906;DHT22;9585;51.018;4.282;2024-03-02T06:04:08;5.30;99.90
18906;DHT22;9585;51.018;4.282;2024-03-02T06:06:37;5.20;99.90
18906;DHT22;9585;51.018;4.282;2024-03-02T06:09:06;5.20;99.90
18906;DHT22;9585;51.018;4.282;2024-03-02T06:11:35;5.20;99.90
18906;DHT22;9585;51.018;4.282;2024-03-02T06:14:03;5.20;99.90
18906;DHT22;9585;51.018;4.282;2024-03-02T06:16:31;5.20;99.90
18906;DHT22;9585;51.018;4.282;2024-03-02T06:19:03;5.20;99.90
18906;DHT22;9585;51.018;4.282;2024-03-02T06:21:33;5.10;99.90
18906;DHT22;9585;51.018;4.282;2024-03-02T06:24:06;5.10;99.90
18906;DHT22;9585;51.018;4.282;2024-03-02T06:26:39;5.10;99.90
18906;DHT22;9585;51.018;4.282;2024-03-02T06:29:10;5.10;99.90
18906;DHT22;9585;51.018;4.282;2024-03-02T06:32:05;5.20;99.90
18906;DHT22;9585;51.018;4.282;2024-03-02T06:34:35;5.20;99.90
18906;DHT22;9585;51.018;4.282;2024-03-02T06:37:05;5.20;99.90
18906;DHT22;9585;51.018;4.282;2024-03-02T06:39:33;5.20;99.90
18906;DHT22;9585;51.018;4.282;2024-03-02T06:42:02;5.20;99.90
18906;DHT22;9585;51.018;4.282;2024-03-02T06:44:36;5.20;99.90
18906;DHT22;9585;51.018;4.282;2024-03-02T06:47:06;5.30;99.90
18906;DHT22;9585;51.018;4.282;2024-03-02T06:49:35;5.20;99.90
18906;DHT22;9585;51.018;4.282;2024-03-02T06:52:03;5.20;99.90
18906;DHT22;9585;51.018;4.282;2024-03-02T06:54:32;5.10;99.90
18906;DHT22;9585;51.018;4.282;2024-03-02T06:57:00;5.20;99.90
18906;DHT22;9585;51.018;4.282;2024-03-02T06:59:28;5.10;99.90
18906;DHT22;9585;51.018;4.282;2024-03-02T07:01:56;5.20;99.90
18906;DHT22;9585;51.018;4.282;2024-03-02T07:04:24;5.30;99.90
18906;DHT22;9585;51.018;4.282;2024-03-02T07:06:54;5.50;99.90
18906;DHT22;9585;51.018;4.282;2024-03-02T07:09:22;5.70;99.90
18906;DHT22;9585;51.018;4.282;2024-03-02T07:11:50;6.00;99.90
18906;DHT22;9585;51.018;4.282;2024-03-02T07:14:32;6.20;99.90
18906;DHT22;9585;51.018;4.282;2024-03-02T07:17:16;6.40;99.90
18906;DHT22;9585;51.018;4.282;2024-03-02T07:19:44;6.60;99.90
18906;DHT22;9585;51.018;4.282;2024-03-02T07:22:17;6.80;99.90
18906;DHT22;9585;51.018;4.282;2024-03-02T07:24:44;7.00;99.90
18906;DHT22;9585;51.018;4.282;2024-03-02T07:27:13;7.20;99.90
18906;DHT22;9585;51.018;4.282;2024-03-02T07:29:41;7.40;99.90
18906;DHT22;9585;51.018;4.282;2024-03-02T07:32:10;7.90;99.90
18906;DHT22;9585;51.018;4.282;2024-03-02T07:34:38;8.00;99.90
18906;DHT22;9585;51.018;4.282;2024-03-02T07:37:06;8.40;99.90
18906;DHT22;9585;51.018;4.282;2024-03-02T07:39:34;9.10;99.90
18906;DHT22;9585;51.018;4.282;2024-03-02T07:42:02;9.10;99.90
18906;DHT22;9585;51.018;4.282;2024-03-02T07:44:29;9.60;99.90
18906;DHT22;9585;51.018;4.282;2024-03-02T07:46:57;9.50;99.90
18906;DHT22;9585;51.018;4.282;2024-03-02T07:49:25;8.80;99.90
18906;DHT22;9585;51.018;4.282;2024-03-02T07:51:52;8.70;99.90
18906;DHT22;9585;51.018;4.282;2024-03-02T07:54:20;9.00;99.90
18906;DHT22;9585;51.018;4.282;2024-03-02T07:56:49;9.10;99.90
18906;DHT22;9585;51.018;4.282;2024-03-02T07:59:17;9.00;99.90
18906;DHT22;9585;51.018;4.282;2024-03-02T08:01:46;9.80;99.90
18906;DHT22;9585;51.018;4.282;2024-03-02T08:04:14;10.30;99.90
18906;DHT22;9585;51.018;4.282;2024-03-02T08:06:41;10.40;99.90
18906;DHT22;9585;51.018;4.282;2024-03-02T08:09:09;10.60;99.90
18906;DHT22;9585;51.018;4.282;2024-03-02T08:11:36;10.80;99.90
18906;DHT22;9585;51.018;4.282;2024-03-02T08:14:06;11.20;99.90
18906;DHT22;9585;51.018;4.282;2024-03-02T08:16:33;11.50;99.90
18906;DHT22;9585;51.018;4.282;2024-03-02T08:19:01;11.90;99.90
18906;DHT22;9585;51.018;4.282;2024-03-02T08:21:29;11.80;99.90
18906;DHT22;9585;51.018;4.282;2024-03-02T08:23:58;11.70;99.90
18906;DHT22;9585;51.018;4.282;2024-03-02T08:26:30;11.10;99.90
18906;DHT22;9585;51.018;4.282;2024-03-02T08:29:11;10.60;99.90
18906;DHT22;9585;51.018;4.282;2024-03-02T08:32:07;10.00;99.90
18906;DHT22;9585;51.018;4.282;2024-03-02T08:37:26;9.60;99.90
18906;DHT22;9585;51.018;4.282;2024-03-02T08:40:05;9.40;99.90
18906;DHT22;9585;51.018;4.282;2024-03-02T08:42:38;9.50;99.90
18906;DHT22;9585;51.018;4.282;2024-03-02T08:45:24;9.40;99.90
18906;DHT22;9585;51.018;4.282;2024-03-02T08:48:07;9.50;99.90
18906;DHT22;9585;51.018;4.282;2024-03-02T08:50:51;9.40;99.90
18906;DHT22;9585;51.018;4.282;2024-03-02T08:53:29;9.30;99.90
18906;DHT22;9585;51.018;4.282;2024-03-02T08:56:32;9.40;99.90
18906;DHT22;9585;51.018;4.282;2024-03-02T08:59:10;9.40;99.90
18906;DHT22;9585;51.018;4.282;2024-03-02T09:01:59;9.40;99.90
18906;DHT22;9585;51.018;4.282;2024-03-02T09:05:06;9.30;99.90
18906;DHT22;9585;51.018;4.282;2024-03-02T09:07:35;9.40;99.90
18906;DHT22;9585;51.018;4.282;2024-03-02T09:10:07;9.30;99.90
18906;DHT22;9585;51.018;4.282;2024-03-02T09:12:35;9.30;99.90
18906;DHT22;9585;51.018;4.282;2024-03-02T09:15:10;9.30;99.90
18906;DHT22;9585;51.018;4.282;2024-03-02T09:17:50;9.50;99.90
18906;DHT22;9585;51.018;4.282;2024-03-02T09:20:21;9.50;99.90
18906;DHT22;9585;51.018;4.282;2024-03-02T09:22:51;9.70;99.90
18906;DHT22;9585;51.018;4.282;2024-03-02T09:25:19;9.70;99.90
18906;DHT22;9585;51.018;4.282;2024-03-02T09:27:51;9.80;99.90
18906;DHT22;9585;51.018;4.282;2024-03-02T09:30:22;10.00;99.90
18906;DHT22;9585;51.018;4.282;2024-03-02T09:32:55;9.90;99.90
18906;DHT22;9585;51.018;4.282;2024-03-02T09:35:24;10.10;99.90
18906;DHT22;9585;51.018;4.282;2024-03-02T09:37:54;10.10;99.90
18906;DHT22;9585;51.018;4.282;2024-03-02T09:40:30;9.90;99.90
18906;DHT22;9585;51.018;4.282;2024-03-02T09:43:01;9.90;99.90
18906;DHT22;9585;51.018;4.282;2024-03-02T09:45:30;10.10;99.90
18906;DHT22;9585;51.018;4.282;2024-03-02T09:48:01;10.20;99.90
18906;DHT22;9585;51.018;4.282;2024-03-02T09:50:29;10.10;99.90
18906;DHT22;9585;51.018;4.282;2024-03-02T09:52:57;10.20;99.90
18906;DHT22;9585;51.018;4.282;2024-03-02T09:55:25;10.10;99.90
18906;DHT22;9585;51.018;4.282;2024-03-02T09:57:52;10.20;99.90
18906;DHT22;9585;51.018;4.282;2024-03-02T10:00:20;10.30;99.90
18906;DHT22;9585;51.018;4.282;2024-03-02T10:03:02;10.50;99.90
18906;DHT22;9585;51.018;4.282;2024-03-02T10:05:36;10.30;99.90
18906;DHT22;9585;51.018;4.282;2024-03-02T10:08:21;10.00;99.90
18906;DHT22;9585;51.018;4.282;2024-03-02T10:10:49;9.90;99.90
18906;DHT22;9585;51.018;4.282;2024-03-02T10:13:27;9.90;99.90
18906;DHT22;9585;51.018;4.282;2024-03-02T10:16:12;10.00;99.90
18906;DHT22;9585;51.018;4.282;2024-03-02T10:18:41;10.10;99.90
18906;DHT22;9585;51.018;4.282;2024-03-02T10:21:25;10.30;99.90
18906;DHT22;9585;51.018;4.282;2024-03-02T10:24:07;10.40;99.90
18906;DHT22;9585;51.018;4.282;2024-03-02T10:26:43;10.50;99.90
18906;DHT22;9585;51.018;4.282;2024-03-02T10:29:15;10.60;99.90
18906;DHT22;9585;51.018;4.282;2024-03-02T10:31:46;10.90;99.90
18906;DHT22;9585;51.018;4.282;2024-03-02T10:34:25;10.90;99.90
18906;DHT22;9585;51.018;4.282;2024-03-02T10:37:05;10.90;99.90
18906;DHT22;9585;51.018;4.282;2024-03-02T10:39:37;11.00;99.90
18906;DHT22;9585;51.018;4.282;2024-03-02T10:42:06;11.20;99.90
18906;DHT22;9585;51.018;4.282;2024-03-02T10:44:34;11.50;99.90
18906;DHT22;9585;51.018;4.282;2024-03-02T10:47:05;11.80;99.90
18906;DHT22;9585;51.018;4.282;2024-03-02T10:49:38;11.40;99.90
18906;DHT22;9585;51.018;4.282;2024-03-02T10:52:08;11.20;99.90
18906;DHT22;9585;51.018;4.282;2024-03-02T10:54:36;11.00;99.90
18906;DHT22;9585;51.018;4.282;2024-03-02T10:57:07;11.10;99.90
18906;DHT22;9585;51.018;4.282;2024-03-02T10:59:37;11.40;99.90
18906;DHT22;9585;51.018;4.282;2024-03-02T11:02:05;11.50;99.90
18906;DHT22;9585;51.018;4.282;2024-03-02T11:04:36;11.50;99.90
18906;DHT22;9585;51.018;4.282;2024-03-02T11:07:06;11.60;99.90
18906;DHT22;9585;51.018;4.282;2024-03-02T11:09:35;11.70;99.90
18906;DHT22;9585;51.018;4.282;2024-03-02T11:12:12;11.40;99.90
18906;DHT22;9585;51.018;4.282;2024-03-02T11:14:41;11.20;99.90
18906;DHT22;9585;51.018;4.282;2024-03-02T11:17:11;11.10;99.90
18906;DHT22;9585;51.018;4.282;2024-03-02T11:19:41;10.90;99.90
18906;DHT22;9585;51.018;4.282;2024-03-02T11:22:11;11.10;99.90
18906;DHT22;9585;51.018;4.282;2024-03-02T11:24:40;11.20;99.90
18906;DHT22;9585;51.018;4.282;2024-03-02T11:27:20;11.40;99.90
18906;DHT22;9585;51.018;4.282;2024-03-02T11:30:03;11.60;99.90
18906;DHT22;9585;51.018;4.282;2024-03-02T11:32:31;11.50;99.90
18906;DHT22;9585;51.018;4.282;2024-03-02T11:35:02;11.70;99.90
18906;DHT22;9585;51.018;4.282;2024-03-02T11:37:33;11.60;99.90
18906;DHT22;9585;51.018;4.282;2024-03-02T11:40:01;11.30;99.90
18906;DHT22;9585;51.018;4.282;2024-03-02T11:42:30;11.20;99.90
18906;DHT22;9585;51.018;4.282;2024-03-02T11:45:00;11.30;99.90
18906;DHT22;9585;51.018;4.282;2024-03-02T11:47:34;11.40;99.90
18906;DHT22;9585;51.018;4.282;2024-03-02T11:50:04;11.30;99.90
18906;DHT22;9585;51.018;4.282;2024-03-02T11:52:35;11.20;99.90
18906;DHT22;9585;51.018;4.282;2024-03-02T11:55:06;11.30;99.90
18906;DHT22;9585;51.018;4.282;2024-03-02T11:57:38;11.50;99.90
18906;DHT22;9585;51.018;4.282;2024-03-02T12:00:17;11.50;99.90
18906;DHT22;9585;51.018;4.282;2024-03-02T12:02:46;11.60;99.90
18906;DHT22;9585;51.018;4.282;2024-03-02T12:05:17;11.60;99.90
18906;DHT22;9585;51.018;4.282;2024-03-02T12:07:46;11.70;99.90
18906;DHT22;9585;51.018;4.282;2024-03-02T12:10:15;12.20;99.90
18906;DHT22;9585;51.018;4.282;2024-03-02T12:12:43;12.60;99.90
18906;DHT22;9585;51.018;4.282;2024-03-02T12:15:10;13.00;99.90
18906;DHT22;9585;51.018;4.282;2024-03-02T12:17:38;13.40;99.90
18906;DHT22;9585;51.018;4.282;2024-03-02T12:20:06;13.50;99.90
18906;DHT22;9585;51.018;4.282;2024-03-02T12:22:37;13.40;99.90
18906;DHT22;9585;51.018;4.282;2024-03-02T12:25:05;13.30;99.90
18906;DHT22;9585;51.018;4.282;2024-03-02T12:27:36;13.20;99.90
18906;DHT22;9585;51.018;4.282;2024-03-02T12:30:10;13.40;99.90
18906;DHT22;9585;51.018;4.282;2024-03-02T12:32:40;13.40;99.90
18906;DHT22;9585;51.018;4.282;2024-03-02T12:35:09;13.50;99.90
18906;DHT22;9585;51.018;4.282;2024-03-02T12:37:46;13.50;99.90
18906;DHT22;9585;51.018;4.282;2024-03-02T12:40:15;13.30;99.90
18906;DHT22;9585;51.018;4.282;2024-03-02T12:42:44;13.30;99.90
18906;DHT22;9585;51.018;4.282;2024-03-02T12:45:15;13.30;99.90
18906;DHT22;9585;51.018;4.282;2024-03-02T12:47:49;13.50;99.90
18906;DHT22;9585;51.018;4.282;2024-03-02T12:50:18;13.80;99.90
18906;DHT22;9585;51.018;4.282;2024-03-02T12:52:53;13.90;99.90
18906;DHT22;9585;51.018;4.282;2024-03-02T12:55:22;14.00;99.90
18906;DHT22;9585;51.018;4.282;2024-03-02T12:57:52;13.90;99.90
18906;DHT22;9585;51.018;4.282;2024-03-02T13:00:20;13.70;99.90
18906;DHT22;9585;51.018;4.282;2024-03-02T13:02:50;13.70;99.90
18906;DHT22;9585;51.018;4.282;2024-03-02T13:05:19;13.50;99.90
18906;DHT22;9585;51.018;4.282;2024-03-02T13:07:47;13.10;99.90
18906;DHT22;9585;51.018;4.282;2024-03-02T13:10:19;12.80;99.90
18906;DHT22;9585;51.018;4.282;2024-03-02T13:12:47;12.70;99.90
18906;DHT22;9585;51.018;4.282;2024-03-02T13:15:15;12.60;99.90
18906;DHT22;9585;51.018;4.282;2024-03-02T13:17:44;12.80;99.90
18906;DHT22;9585;51.018;4.282;2024-03-02T13:20:15;12.80;99.90
18906;DHT22;9585;51.018;4.282;2024-03-02T13:23:04;12.70;99.90
18906;DHT22;9585;51.018;4.282;2024-03-02T13:26:02;12.80;99.90
18906;DHT22;9585;51.018;4.282;2024-03-02T13:28:49;12.80;99.90
18906;DHT22;9585;51.018;4.282;2024-03-02T13:31:19;12.70;99.90
18906;DHT22;9585;51.018;4.282;2024-03-02T13:33:50;12.60;99.90
18906;DHT22;9585;51.018;4.282;2024-03-02T13:36:25;12.70;99.90
18906;DHT22;9585;51.018;4.282;2024-03-02T13:38:53;12.80;99.90
18906;DHT22;9585;51.018;4.282;2024-03-02T13:41:22;12.70;99.90
18906;DHT22;9585;51.018;4.282;2024-03-02T13:43:53;12.70;99.90
18906;DHT22;9585;51.018;4.282;2024-03-02T13:46:21;12.60;99.90
18906;DHT22;9585;51.018;4.282;2024-03-02T13:48:49;12.70;99.90
18906;DHT22;9585;51.018;4.282;2024-03-02T13:51:17;12.80;99.90
18906;DHT22;9585;51.018;4.282;2024-03-02T13:53:45;12.90;99.90
18906;DHT22;9585;51.018;4.282;2024-03-02T13:56:13;12.90;99.90
18906;DHT22;9585;51.018;4.282;2024-03-02T13:58:42;12.70;99.90
18906;DHT22;9585;51.018;4.282;2024-03-02T14:01:12;12.60;99.90
18906;DHT22;9585;51.018;4.282;2024-03-02T14:03:41;12.60;99.90
18906;DHT22;9585;51.018;4.282;2024-03-02T14:06:11;12.50;99.90
18906;DHT22;9585;51.018;4.282;2024-03-02T14:08:38;12.30;99.90
18906;DHT22;9585;51.018;4.282;2024-03-02T14:11:06;12.20;99.90
18906;DHT22;9585;51.018;4.282;2024-03-02T14:13:37;12.20;99.90
18906;DHT22;9585;51.018;4.282;2024-03-02T14:16:09;12.30;99.90
18906;DHT22;9585;51.018;4.282;2024-03-02T14:18:41;12.40;99.90
18906;DHT22;9585;51.018;4.282;2024-03-02T14:21:09;12.40;99.90
18906;DHT22;9585;51.018;4.282;2024-03-02T14:23:37;12.30;99.90
18906;DHT22;9585;51.018;4.282;2024-03-02T14:26:07;12.30;99.90
18906;DHT22;9585;51.018;4.282;2024-03-02T14:28:35;12.20;99.90
18906;DHT22;9585;51.018;4.282;2024-03-02T14:31:03;12.10;99.90
18906;DHT22;9585;51.018;4.282;2024-03-02T14:33:54;12.20;99.90
18906;DHT22;9585;51.018;4.282;2024-03-02T14:36:22;12.30;99.90
18906;DHT22;9585;51.018;4.282;2024-03-02T14:38:59;12.30;99.90
18906;DHT22;9585;51.018;4.282;2024-03-02T14:41:31;12.30;99.90
18906;DHT22;9585;51.018;4.282;2024-03-02T14:44:13;12.10;99.90
18906;DHT22;9585;51.018;4.282;2024-03-02T14:46:43;12.00;99.90
18906;DHT22;9585;51.018;4.282;2024-03-02T14:49:28;11.90;99.90
18906;DHT22;9585;51.018;4.282;2024-03-02T14:52:13;11.90;99.90
18906;DHT22;9585;51.018;4.282;2024-03-02T14:54:48;11.90;99.90
18906;DHT22;9585;51.018;4.282;2024-03-02T14:57:23;11.80;99.90
18906;DHT22;9585;51.018;4.282;2024-03-02T14:59:51;11.90;99.90
18906;DHT22;9585;51.018;4.282;2024-03-02T15:02:20;12.00;99.90
18906;DHT22;9585;51.018;4.282;2024-03-02T15:04:52;12.00;99.90
18906;DHT22;9585;51.018;4.282;2024-03-02T15:07:20;11.90;99.90
18906;DHT22;9585;51.018;4.282;2024-03-02T15:09:48;12.00;99.90
18906;DHT22;9585;51.018;4.282;2024-03-02T15:12:18;11.80;99.90
18906;DHT22;9585;51.018;4.282;2024-03-02T15:14:59;11.70;99.90
18906;DHT22;9585;51.018;4.282;2024-03-02T15:17:28;11.60;99.90
18906;DHT22;9585;51.018;4.282;2024-03-02T15:20:00;11.70;99.90
18906;DHT22;9585;51.018;4.282;2024-03-02T15:22:34;11.70;99.90
18906;DHT22;9585;51.018;4.282;2024-03-02T15:25:02;11.50;99.90
18906;DHT22;9585;51.018;4.282;2024-03-02T15:27:33;11.60;99.90
18906;DHT22;9585;51.018;4.282;2024-03-02T15:30:01;11.50;99.90
18906;DHT22;9585;51.018;4.282;2024-03-02T15:32:29;11.50;99.90
18906;DHT22;9585;51.018;4.282;2024-03-02T15:34:57;11.50;99.90
18906;DHT22;9585;51.018;4.282;2024-03-02T15:37:26;11.40;99.90
18906;DHT22;9585;51.018;4.282;2024-03-02T15:39:54;11.30;99.90
18906;DHT22;9585;51.018;4.282;2024-03-02T15:42:22;11.20;99.90
18906;DHT22;9585;51.018;4.282;2024-03-02T15:44:51;11.30;99.90
18906;DHT22;9585;51.018;4.282;2024-03-02T15:47:19;11.10;99.90
18906;DHT22;9585;51.018;4.282;2024-03-02T15:49:47;11.10;99.90
18906;DHT22;9585;51.018;4.282;2024-03-02T15:52:16;11.20;99.90
18906;DHT22;9585;51.018;4.282;2024-03-02T15:54:49;11.10;99.90
18906;DHT22;9585;51.018;4.282;2024-03-02T15:57:17;11.00;99.90
18906;DHT22;9585;51.018;4.282;2024-03-02T15:59:45;11.00;99.90
18906;DHT22;9585;51.018;4.282;2024-03-02T16:02:13;11.10;99.90
18906;DHT22;9585;51.018;4.282;2024-03-02T16:04:44;11.10;99.90
18906;DHT22;9585;51.018;4.282;2024-03-02T16:07:12;11.20;99.90
18906;DHT22;9585;51.018;4.282;2024-03-02T16:09:41;11.30;99.90
18906;DHT22;9585;51.018;4.282;2024-03-02T16:12:11;11.20;99.90
18906;DHT22;9585;51.018;4.282;2024-03-02T16:14:39;11.10;99.90
18906;DHT22;9585;51.018;4.282;2024-03-02T16:17:07;11.20;99.90
18906;DHT22;9585;51.018;4.282;2024-03-02T16:19:35;11.10;99.90
18906;DHT22;9585;51.018;4.282;2024-03-02T16:22:07;11.10;99.90
18906;DHT22;9585;51.018;4.282;2024-03-02T16:24:52;11.20;99.90